sensor_id;sensor_type;location;lat;lon;timestamp;P1;durP1;ratioP1;P2;durP2;ratioP2
25609;SDS011;13479;49.044;8.716;2022-09-30T04:16:02;18.53;;;9.40;;
25609;SDS011;13479;49.044;8.716;2022-09-30T04:18:28;17.80;;;9.43;;
25609;SDS011;13479;49.044;8.716;2022-09-30T04:20:55;20.63;;;10.23;;
25609;SDS011;13479;49.044;8.716;2022-09-30T04:23:21;20.53;;;10.70;;
25609;SDS011;13479;49.044;8.716;2022-09-30T04:25:55;26.70;;;11.30;;
25609;SDS011;13479;49.044;8.716;2022-09-30T04:28:21;18.83;;;10.23;;
25609;SDS011;13479;49.044;8.716;2022-09-30T04:30:47;22.67;;;11.03;;
25609;SDS011;13479;49.044;8.716;2022-09-30T04:33:12;34.13;;;10.75;;
25609;SDS011;13479;49.044;8.716;2022-09-30T04:35:38;25.07;;;11.03;;
25609;SDS011;13479;49.044;8.716;2022-09-30T04:38:03;27.43;;;11.00;;
25609;SDS011;13479;49.044;8.716;2022-09-30T04:40:31;27.47;;;10.50;;
25609;SDS011;13479;49.044;8.716;2022-09-30T04:43:00;26.27;;;9.87;;
25609;SDS011;13479;49.044;8.716;2022-09-30T04:45:25;33.47;;;11.20;;
25609;SDS011;13479;49.044;8.716;2022-09-30T04:47:50;26.45;;;10.95;;
25609;SDS011;13479;49.044;8.716;2022-09-30T04:50:16;33.47;;;11.37;;
25609;SDS011;13479;49.044;8.716;2022-09-30T04:52:42;26.70;;;11.20;;
25609;SDS011;13479;49.044;8.716;2022-09-30T04:55:07;27.40;;;12.07;;
25609;SDS011;13479;49.044;8.716;2022-09-30T04:57:33;29.67;;;12.63;;
25609;SDS011;13479;49.044;8.716;2022-09-30T04:59:59;27.43;;;12.70;;
25609;SDS011;13479;49.044;8.716;2022-09-30T05:02:24;40.73;;;13.23;;
25609;SDS011;13479;49.044;8.716;2022-09-30T05:04:49;28.37;;;12.33;;
25609;SDS011;13479;49.044;8.716;2022-09-30T05:07:15;26.10;;;12.33;;
25609;SDS011;13479;49.044;8.716;2022-09-30T05:09:40;23.93;;;11.23;;
25609;SDS011;13479;49.044;8.716;2022-09-30T05:12:05;19.27;;;10.07;;
25609;SDS011;13479;49.044;8.716;2022-09-30T05:14:32;20.83;;;10.13;;
25609;SDS011;13479;49.044;8.716;2022-09-30T05:16:57;17.83;;;9.30;;
25609;SDS011;13479;49.044;8.716;2022-09-30T05:19:22;18.30;;;10.10;;
25609;SDS011;13479;49.044;8.716;2022-09-30T05:21:48;20.97;;;12.60;;
25609;SDS011;13479;49.044;8.716;2022-09-30T05:24:13;16.03;;;9.70;;
25609;SDS011;13479;49.044;8.716;2022-09-30T05:26:38;18.23;;;10.70;;
25609;SDS011;13479;49.044;8.716;2022-09-30T05:29:04;18.08;;;10.52;;
25609;SDS011;13479;49.044;8.716;2022-09-30T05:31:29;15.53;;;9.70;;
25609;SDS011;13479;49.044;8.716;2022-09-30T05:33:55;14.97;;;9.97;;
25609;SDS011;13479;49.044;8.716;2022-09-30T05:36:20;14.10;;;9.23;;
25609;SDS011;13479;49.044;8.716;2022-09-30T05:38:48;14.27;;;9.00;;
25609;SDS011;13479;49.044;8.716;2022-09-30T05:41:14;18.98;;;9.95;;
25609;SDS011;13479;49.044;8.716;2022-09-30T05:43:40;18.17;;;10.80;;
25609;SDS011;13479;49.044;8.716;2022-09-30T05:46:09;20.00;;;10.87;;
25609;SDS011;13479;49.044;8.716;2022-09-30T05:48:34;18.33;;;10.07;;
25609;SDS011;13479;49.044;8.716;2022-09-30T05:51:00;17.17;;;10.10;;
25609;SDS011;13479;49.044;8.716;2022-09-30T05:53:26;13.57;;;9.37;;
25609;SDS011;13479;49.044;8.716;2022-09-30T05:55:52;16.00;;;9.27;;
25609;SDS011;13479;49.044;8.716;2022-09-30T05:58:17;13.05;;;9.20;;
25609;SDS011;13479;49.044;8.716;2022-09-30T06:00:44;16.92;;;10.80;;
25609;SDS011;13479;49.044;8.716;2022-09-30T06:03:11;15.73;;;9.83;;
25609;SDS011;13479;49.044;8.716;2022-09-30T06:05:36;15.87;;;9.63;;
25609;SDS011;13479;49.044;8.716;2022-09-30T06:08:02;15.30;;;9.27;;
25609;SDS011;13479;49.044;8.716;2022-09-30T06:10:28;15.30;;;9.40;;
25609;SDS011;13479;49.044;8.716;2022-09-30T06:12:54;13.70;;;9.55;;
25609;SDS011;13479;49.044;8.716;2022-09-30T06:15:19;16.40;;;10.17;;
25609;SDS011;13479;49.044;8.716;2022-09-30T06:17:44;15.38;;;9.35;;
25609;SDS011;13479;49.044;8.716;2022-09-30T06:20:10;13.85;;;8.32;;
25609;SDS011;13479;49.044;8.716;2022-09-30T06:22:36;14.82;;;8.98;;
25609;SDS011;13479;49.044;8.716;2022-09-30T06:25:03;16.42;;;9.32;;
25609;SDS011;13479;49.044;8.716;2022-09-30T06:27:29;19.30;;;12.37;;
25609;SDS011;13479;49.044;8.716;2022-09-30T06:29:57;17.13;;;10.48;;
25609;SDS011;13479;49.044;8.716;2022-09-30T06:32:22;16.92;;;9.80;;
25609;SDS011;13479;49.044;8.716;2022-09-30T06:34:49;19.42;;;10.30;;
25609;SDS011;13479;49.044;8.716;2022-09-30T06:37:15;22.23;;;11.87;;
25609;SDS011;13479;49.044;8.716;2022-09-30T06:39:42;25.33;;;11.63;;
25609;SDS011;13479;49.044;8.716;2022-09-30T06:42:07;24.85;;;10.73;;
25609;SDS011;13479;49.044;8.716;2022-09-30T06:44:33;22.23;;;11.70;;
25609;SDS011;13479;49.044;8.716;2022-09-30T06:46:58;21.90;;;12.00;;
25609;SDS011;13479;49.044;8.716;2022-09-30T06:49:23;21.65;;;11.88;;
25609;SDS011;13479;49.044;8.716;2022-09-30T06:51:49;21.05;;;11.02;;
25609;SDS011;13479;49.044;8.716;2022-09-30T06:54:15;19.75;;;11.90;;
25609;SDS011;13479;49.044;8.716;2022-09-30T06:56:40;22.38;;;11.95;;
25609;SDS011;13479;49.044;8.716;2022-09-30T06:59:06;23.67;;;12.18;;
25609;SDS011;13479;49.044;8.716;2022-09-30T07:01:32;21.83;;;10.90;;
25609;SDS011;13479;49.044;8.716;2022-09-30T07:03:57;20.80;;;12.25;;
25609;SDS011;13479;49.044;8.716;2022-09-30T07:06:23;25.73;;;10.57;;
25609;SDS011;13479;49.044;8.716;2022-09-30T07:08:50;19.50;;;10.32;;
25609;SDS011;13479;49.044;8.716;2022-09-30T07:11:15;18.92;;;10.70;;
25609;SDS011;13479;49.044;8.716;2022-09-30T07:13:41;21.00;;;10.45;;
25609;SDS011;13479;49.044;8.716;2022-09-30T07:16:08;19.17;;;10.38;;
25609;SDS011;13479;49.044;8.716;2022-09-30T07:18:35;15.52;;;9.82;;
25609;SDS011;13479;49.044;8.716;2022-09-30T07:21:01;16.58;;;9.73;;
25609;SDS011;13479;49.044;8.716;2022-09-30T07:23:27;17.02;;;9.50;;
25609;SDS011;13479;49.044;8.716;2022-09-30T07:25:53;17.35;;;9.30;;
25609;SDS011;13479;49.044;8.716;2022-09-30T07:28:24;15.65;;;10.60;;
25609;SDS011;13479;49.044;8.716;2022-09-30T07:30:54;13.85;;;9.93;;
25609;SDS011;13479;49.044;8.716;2022-09-30T07:33:23;16.23;;;10.25;;
25609;SDS011;13479;49.044;8.716;2022-09-30T07:35:51;16.63;;;10.07;;
25609;SDS011;13479;49.044;8.716;2022-09-30T07:38:18;14.80;;;9.00;;
25609;SDS011;13479;49.044;8.716;2022-09-30T07:40:59;14.35;;;9.32;;
25609;SDS011;13479;49.044;8.716;2022-09-30T07:43:27;15.63;;;11.00;;
25609;SDS011;13479;49.044;8.716;2022-09-30T07:46:06;15.80;;;9.75;;
25609;SDS011;13479;49.044;8.716;2022-09-30T07:48:49;14.00;;;9.27;;
25609;SDS011;13479;49.044;8.716;2022-09-30T07:54:14;14.63;;;9.02;;
25609;SDS011;13479;49.044;8.716;2022-09-30T07:56:42;13.80;;;9.07;;
25609;SDS011;13479;49.044;8.716;2022-09-30T07:59:09;14.93;;;8.65;;
25609;SDS011;13479;49.044;8.716;2022-09-30T08:01:35;13.85;;;8.95;;
25609;SDS011;13479;49.044;8.716;2022-09-30T08:04:04;16.30;;;9.18;;
25609;SDS011;13479;49.044;8.716;2022-09-30T08:06:34;13.05;;;8.57;;
25609;SDS011;13479;49.044;8.716;2022-09-30T08:09:02;13.75;;;9.00;;
25609;SDS011;13479;49.044;8.716;2022-09-30T08:11:31;13.88;;;9.20;;
25609;SDS011;13479;49.044;8.716;2022-09-30T08:13:58;15.27;;;8.95;;
25609;SDS011;13479;49.044;8.716;2022-09-30T08:16:24;13.65;;;8.70;;
25609;SDS011;13479;49.044;8.716;2022-09-30T08:19:00;11.52;;;8.30;;
25609;SDS011;13479;49.044;8.716;2022-09-30T08:21:27;12.63;;;7.97;;
25609;SDS011;13479;49.044;8.716;2022-09-30T08:23:52;11.10;;;8.18;;
25609;SDS011;13479;49.044;8.716;2022-09-30T08:26:18;12.30;;;8.18;;
25609;SDS011;13479;49.044;8.716;2022-09-30T08:28:44;12.80;;;8.35;;
25609;SDS011;13479;49.044;8.716;2022-09-30T08:31:15;12.27;;;8.45;;
25609;SDS011;13479;49.044;8.716;2022-09-30T08:33:45;12.95;;;8.52;;
25609;SDS011;13479;49.044;8.716;2022-09-30T08:36:13;13.38;;;7.72;;
25609;SDS011;13479;49.044;8.716;2022-09-30T08:38:40;14.00;;;8.18;;
25609;SDS011;13479;49.044;8.716;2022-09-30T08:46:46;11.65;;;8.05;;
25609;SDS011;13479;49.044;8.716;2022-09-30T08:51:52;13.35;;;8.85;;
25609;SDS011;13479;49.044;8.716;2022-09-30T08:54:21;14.88;;;8.85;;
25609;SDS011;13479;49.044;8.716;2022-09-30T08:56:48;11.27;;;7.45;;
25609;SDS011;13479;49.044;8.716;2022-09-30T08:59:48;14.85;;;8.65;;
25609;SDS011;13479;49.044;8.716;2022-09-30T09:02:20;13.77;;;8.10;;
25609;SDS011;13479;49.044;8.716;2022-09-30T09:04:49;11.88;;;8.23;;
25609;SDS011;13479;49.044;8.716;2022-09-30T09:07:26;12.75;;;7.90;;
25609;SDS011;13479;49.044;8.716;2022-09-30T09:15:22;12.98;;;7.80;;
25609;SDS011;13479;49.044;8.716;2022-09-30T09:17:58;12.95;;;7.57;;
25609;SDS011;13479;49.044;8.716;2022-09-30T09:20:32;10.73;;;6.88;;
25609;SDS011;13479;49.044;8.716;2022-09-30T09:23:07;11.30;;;7.15;;
25609;SDS011;13479;49.044;8.716;2022-09-30T09:25:35;9.98;;;6.88;;
25609;SDS011;13479;49.044;8.716;2022-09-30T09:28:01;9.95;;;6.72;;
25609;SDS011;13479;49.044;8.716;2022-09-30T09:30:35;10.60;;;6.43;;
25609;SDS011;13479;49.044;8.716;2022-09-30T09:33:14;10.35;;;6.32;;
25609;SDS011;13479;49.044;8.716;2022-09-30T09:41:39;8.52;;;5.72;;
25609;SDS011;13479;49.044;8.716;2022-09-30T09:46:58;9.43;;;5.57;;
25609;SDS011;13479;49.044;8.716;2022-09-30T09:49:38;7.43;;;5.03;;
25609;SDS011;13479;49.044;8.716;2022-09-30T09:54:39;9.05;;;5.28;;
25609;SDS011;13479;49.044;8.716;2022-09-30T09:57:15;7.72;;;4.72;;
25609;SDS011;13479;49.044;8.716;2022-09-30T09:59:55;9.05;;;4.85;;
25609;SDS011;13479;49.044;8.716;2022-09-30T10:02:23;10.25;;;5.00;;
25609;SDS011;13479;49.044;8.716;2022-09-30T10:04:53;7.97;;;4.70;;
25609;SDS011;13479;49.044;8.716;2022-09-30T10:07:26;6.70;;;5.00;;
25609;SDS011;13479;49.044;8.716;2022-09-30T10:12:40;9.13;;;5.07;;
25609;SDS011;13479;49.044;8.716;2022-09-30T10:15:24;9.18;;;5.78;;
25609;SDS011;13479;49.044;8.716;2022-09-30T10:17:57;7.22;;;4.57;;
25609;SDS011;13479;49.044;8.716;2022-09-30T10:23:07;9.50;;;5.07;;
25609;SDS011;13479;49.044;8.716;2022-09-30T10:28:43;8.50;;;5.10;;
25609;SDS011;13479;49.044;8.716;2022-09-30T10:31:11;6.93;;;4.90;;
25609;SDS011;13479;49.044;8.716;2022-09-30T10:33:59;6.22;;;4.95;;
25609;SDS011;13479;49.044;8.716;2022-09-30T10:36:31;6.53;;;4.25;;
25609;SDS011;13479;49.044;8.716;2022-09-30T10:39:00;9.25;;;5.95;;
25609;SDS011;13479;49.044;8.716;2022-09-30T10:41:29;10.55;;;5.05;;
25609;SDS011;13479;49.044;8.716;2022-09-30T10:43:58;6.35;;;4.30;;
25609;SDS011;13479;49.044;8.716;2022-09-30T10:46:27;7.88;;;4.63;;
25609;SDS011;13479;49.044;8.716;2022-09-30T10:48:56;6.63;;;4.80;;
25609;SDS011;13479;49.044;8.716;2022-09-30T10:51:24;9.82;;;4.45;;
25609;SDS011;13479;49.044;8.716;2022-09-30T10:53:51;6.00;;;4.05;;
25609;SDS011;13479;49.044;8.716;2022-09-30T10:59:08;9.65;;;4.78;;
25609;SDS011;13479;49.044;8.716;2022-09-30T11:01:42;6.57;;;4.20;;
25609;SDS011;13479;49.044;8.716;2022-09-30T11:04:22;9.32;;;4.38;;
25609;SDS011;13479;49.044;8.716;2022-09-30T11:07:16;8.27;;;4.32;;
25609;SDS011;13479;49.044;8.716;2022-09-30T11:10:02;7.28;;;4.43;;
25609;SDS011;13479;49.044;8.716;2022-09-30T11:12:47;6.78;;;4.65;;
25609;SDS011;13479;49.044;8.716;2022-09-30T11:15:28;8.63;;;4.97;;
25609;SDS011;13479;49.044;8.716;2022-09-30T11:17:58;7.97;;;4.95;;
25609;SDS011;13479;49.044;8.716;2022-09-30T11:20:30;8.10;;;5.00;;
25609;SDS011;13479;49.044;8.716;2022-09-30T11:23:00;9.10;;;4.55;;
25609;SDS011;13479;49.044;8.716;2022-09-30T11:25:39;8.55;;;4.88;;
25609;SDS011;13479;49.044;8.716;2022-09-30T11:28:20;9.82;;;5.03;;
25609;SDS011;13479;49.044;8.716;2022-09-30T11:31:09;10.75;;;5.72;;
25609;SDS011;13479;49.044;8.716;2022-09-30T11:33:49;11.38;;;5.25;;
25609;SDS011;13479;49.044;8.716;2022-09-30T11:36:35;12.70;;;4.85;;
25609;SDS011;13479;49.044;8.716;2022-09-30T11:39:19;10.80;;;5.32;;
25609;SDS011;13479;49.044;8.716;2022-09-30T11:52:50;7.82;;;5.13;;
25609;SDS011;13479;49.044;8.716;2022-09-30T11:58:44;11.15;;;5.43;;
25609;SDS011;13479;49.044;8.716;2022-09-30T12:04:42;9.07;;;5.18;;
25609;SDS011;13479;49.044;8.716;2022-09-30T12:07:03;8.90;;;4.43;;
25609;SDS011;13479;49.044;8.716;2022-09-30T12:09:43;9.48;;;4.72;;
25609;SDS011;13479;49.044;8.716;2022-09-30T12:12:13;7.68;;;4.50;;
25609;SDS011;13479;49.044;8.716;2022-09-30T12:17:09;6.43;;;3.95;;
25609;SDS011;13479;49.044;8.716;2022-09-30T12:20:43;7.35;;;4.20;;
25609;SDS011;13479;49.044;8.716;2022-09-30T12:23:15;7.90;;;4.57;;
25609;SDS011;13479;49.044;8.716;2022-09-30T12:25:45;8.00;;;4.68;;
25609;SDS011;13479;49.044;8.716;2022-09-30T12:28:27;8.35;;;4.15;;
25609;SDS011;13479;49.044;8.716;2022-09-30T12:31:19;6.65;;;3.85;;
25609;SDS011;13479;49.044;8.716;2022-09-30T12:37:01;7.05;;;3.88;;
25609;SDS011;13479;49.044;8.716;2022-09-30T12:42:47;8.25;;;3.97;;
25609;SDS011;13479;49.044;8.716;2022-09-30T12:48:25;7.28;;;3.92;;
25609;SDS011;13479;49.044;8.716;2022-09-30T12:50:56;6.60;;;3.55;;
25609;SDS011;13479;49.044;8.716;2022-09-30T12:53:26;5.30;;;3.17;;
25609;SDS011;13479;49.044;8.716;2022-09-30T12:55:54;10.70;;;3.88;;
25609;SDS011;13479;49.044;8.716;2022-09-30T12:58:30;6.32;;;3.70;;
25609;SDS011;13479;49.044;8.716;2022-09-30T13:06:13;7.28;;;3.70;;
25609;SDS011;13479;49.044;8.716;2022-09-30T13:14:11;6.25;;;3.30;;
25609;SDS011;13479;49.044;8.716;2022-09-30T13:19:34;7.25;;;3.45;;
25609;SDS011;13479;49.044;8.716;2022-09-30T13:27:27;6.75;;;2.92;;
25609;SDS011;13479;49.044;8.716;2022-09-30T13:32:46;5.90;;;2.95;;
25609;SDS011;13479;49.044;8.716;2022-09-30T13:35:35;8.77;;;3.33;;
25609;SDS011;13479;49.044;8.716;2022-09-30T13:40:54;5.90;;;3.05;;
25609;SDS011;13479;49.044;8.716;2022-09-30T13:43:37;5.55;;;3.25;;
25609;SDS011;13479;49.044;8.716;2022-09-30T13:46:21;7.32;;;3.17;;
25609;SDS011;13479;49.044;8.716;2022-09-30T13:48:53;11.23;;;3.55;;
25609;SDS011;13479;49.044;8.716;2022-09-30T13:51:23;7.28;;;3.15;;
25609;SDS011;13479;49.044;8.716;2022-09-30T13:53:52;3.40;;;2.53;;
25609;SDS011;13479;49.044;8.716;2022-09-30T13:56:26;6.70;;;2.38;;
25609;SDS011;13479;49.044;8.716;2022-09-30T14:18:36;5.30;;;2.40;;
25609;SDS011;13479;49.044;8.716;2022-09-30T14:23:58;8.77;;;2.20;;
25609;SDS011;13479;49.044;8.716;2022-09-30T14:29:19;6.38;;;2.20;;
25609;SDS011;13479;49.044;8.716;2022-09-30T14:32:19;4.00;;;2.47;;
25609;SDS011;13479;49.044;8.716;2022-09-30T14:37:56;7.22;;;2.50;;
25609;SDS011;13479;49.044;8.716;2022-09-30T14:40:26;4.47;;;2.33;;
25609;SDS011;13479;49.044;8.716;2022-09-30T14:42:56;3.85;;;2.28;;
25609;SDS011;13479;49.044;8.716;2022-09-30T14:45:26;9.35;;;2.70;;
25609;SDS011;13479;49.044;8.716;2022-09-30T14:47:55;6.57;;;2.53;;
25609;SDS011;13479;49.044;8.716;2022-09-30T14:50:24;7.75;;;2.60;;
25609;SDS011;13479;49.044;8.716;2022-09-30T14:52:54;5.03;;;2.38;;
25609;SDS011;13479;49.044;8.716;2022-09-30T14:55:33;6.97;;;3.00;;
25609;SDS011;13479;49.044;8.716;2022-09-30T15:00:59;3.45;;;2.03;;
25609;SDS011;13479;49.044;8.716;2022-09-30T15:03:29;5.40;;;2.25;;
25609;SDS011;13479;49.044;8.716;2022-09-30T15:05:58;6.10;;;2.67;;
25609;SDS011;13479;49.044;8.716;2022-09-30T15:08:23;9.68;;;3.35;;
25609;SDS011;13479;49.044;8.716;2022-09-30T15:10:50;5.07;;;2.70;;
25609;SDS011;13479;49.044;8.716;2022-09-30T15:13:17;4.88;;;2.72;;
25609;SDS011;13479;49.044;8.716;2022-09-30T15:15:45;6.93;;;2.85;;
25609;SDS011;13479;49.044;8.716;2022-09-30T15:20:56;5.05;;;2.30;;
25609;SDS011;13479;49.044;8.716;2022-09-30T15:23:25;5.20;;;2.60;;
25609;SDS011;13479;49.044;8.716;2022-09-30T15:25:53;5.88;;;2.13;;
25609;SDS011;13479;49.044;8.716;2022-09-30T15:28:19;4.80;;;2.50;;
25609;SDS011;13479;49.044;8.716;2022-09-30T15:30:45;3.90;;;2.20;;
25609;SDS011;13479;49.044;8.716;2022-09-30T15:33:11;5.63;;;2.40;;
25609;SDS011;13479;49.044;8.716;2022-09-30T15:35:41;5.93;;;2.10;;
25609;SDS011;13479;49.044;8.716;2022-09-30T15:38:08;3.65;;;2.30;;
25609;SDS011;13479;49.044;8.716;2022-09-30T15:40:44;4.75;;;2.20;;
25609;SDS011;13479;49.044;8.716;2022-09-30T15:43:11;7.00;;;3.10;;
25609;SDS011;13479;49.044;8.716;2022-09-30T15:45:44;5.88;;;3.40;;
25609;SDS011;13479;49.044;8.716;2022-09-30T15:50:41;7.28;;;2.50;;
25609;SDS011;13479;49.044;8.716;2022-09-30T15:53:15;7.07;;;2.55;;
25609;SDS011;13479;49.044;8.716;2022-09-30T15:55:43;4.13;;;2.10;;
25609;SDS011;13479;49.044;8.716;2022-09-30T15:58:29;4.70;;;2.05;;
25609;SDS011;13479;49.044;8.716;2022-09-30T16:03:54;5.72;;;1.80;;
25609;SDS011;13479;49.044;8.716;2022-09-30T16:06:26;4.95;;;2.00;;
25609;SDS011;13479;49.044;8.716;2022-09-30T16:14:59;3.72;;;1.83;;
25609;SDS011;13479;49.044;8.716;2022-09-30T16:17:31;4.90;;;2.10;;
25609;SDS011;13479;49.044;8.716;2022-09-30T16:20:04;3.42;;;2.17;;
25609;SDS011;13479;49.044;8.716;2022-09-30T16:25:29;8.70;;;2.85;;
25609;SDS011;13479;49.044;8.716;2022-09-30T16:27:57;7.57;;;4.85;;
25609;SDS011;13479;49.044;8.716;2022-09-30T16:30:23;15.80;;;7.80;;
25609;SDS011;13479;49.044;8.716;2022-09-30T16:32:50;15.80;;;8.63;;
25609;SDS011;13479;49.044;8.716;2022-09-30T16:35:19;12.32;;;6.70;;
25609;SDS011;13479;49.044;8.716;2022-09-30T16:37:46;11.02;;;6.70;;
25609;SDS011;13479;49.044;8.716;2022-09-30T16:40:19;11.43;;;5.53;;
25609;SDS011;13479;49.044;8.716;2022-09-30T16:42:50;6.80;;;4.53;;
25609;SDS011;13479;49.044;8.716;2022-09-30T16:45:18;6.65;;;3.40;;
25609;SDS011;13479;49.044;8.716;2022-09-30T16:47:44;5.97;;;3.15;;
25609;SDS011;13479;49.044;8.716;2022-09-30T16:50:13;5.03;;;2.53;;
25609;SDS011;13479;49.044;8.716;2022-09-30T16:52:41;5.93;;;2.60;;
25609;SDS011;13479;49.044;8.716;2022-09-30T16:55:07;6.57;;;2.55;;
25609;SDS011;13479;49.044;8.716;2022-09-30T16:57:32;11.73;;;6.65;;
25609;SDS011;13479;49.044;8.716;2022-09-30T16:59:58;5.63;;;3.58;;
25609;SDS011;13479;49.044;8.716;2022-09-30T17:02:23;7.97;;;2.95;;
25609;SDS011;13479;49.044;8.716;2022-09-30T17:04:48;5.95;;;3.30;;
25609;SDS011;13479;49.044;8.716;2022-09-30T17:07:14;7.53;;;3.85;;
25609;SDS011;13479;49.044;8.716;2022-09-30T17:09:39;10.25;;;4.88;;
25609;SDS011;13479;49.044;8.716;2022-09-30T17:12:05;9.93;;;4.35;;
25609;SDS011;13479;49.044;8.716;2022-09-30T17:14:30;7.93;;;4.18;;
25609;SDS011;13479;49.044;8.716;2022-09-30T17:16:55;9.43;;;5.28;;
25609;SDS011;13479;49.044;8.716;2022-09-30T17:19:21;9.68;;;4.68;;
25609;SDS011;13479;49.044;8.716;2022-09-30T17:21:46;12.70;;;4.60;;
25609;SDS011;13479;49.044;8.716;2022-09-30T17:24:12;10.70;;;4.32;;
25609;SDS011;13479;49.044;8.716;2022-09-30T17:26:37;9.20;;;4.20;;
25609;SDS011;13479;49.044;8.716;2022-09-30T17:29:02;8.45;;;4.10;;
25609;SDS011;13479;49.044;8.716;2022-09-30T17:31:28;8.98;;;4.50;;
25609;SDS011;13479;49.044;8.716;2022-09-30T17:33:54;13.77;;;5.22;;
25609;SDS011;13479;49.044;8.716;2022-09-30T17:36:19;7.82;;;5.10;;
25609;SDS011;13479;49.044;8.716;2022-09-30T17:38:44;10.75;;;5.45;;
25609;SDS011;13479;49.044;8.716;2022-09-30T17:41:09;7.00;;;3.35;;
25609;SDS011;13479;49.044;8.716;2022-09-30T17:43:56;7.85;;;3.92;;
25609;SDS011;13479;49.044;8.716;2022-09-30T17:46:25;13.18;;;3.70;;
25609;SDS011;13479;49.044;8.716;2022-09-30T17:48:53;8.95;;;4.55;;
25609;SDS011;13479;49.044;8.716;2022-09-30T17:51:20;10.13;;;4.30;;
25609;SDS011;13479;49.044;8.716;2022-09-30T17:53:46;9.70;;;4.22;;
25609;SDS011;13479;49.044;8.716;2022-09-30T17:56:16;6.25;;;3.67;;
25609;SDS011;13479;49.044;8.716;2022-09-30T17:58:46;7.65;;;3.90;;
25609;SDS011;13479;49.044;8.716;2022-09-30T18:01:14;8.55;;;3.60;;
25609;SDS011;13479;49.044;8.716;2022-09-30T18:03:41;8.25;;;3.58;;
25609;SDS011;13479;49.044;8.716;2022-09-30T18:06:07;10.85;;;3.50;;
25609;SDS011;13479;49.044;8.716;2022-09-30T18:08:33;7.18;;;3.63;;
25609;SDS011;13479;49.044;8.716;2022-09-30T18:10:58;7.65;;;3.30;;
25609;SDS011;13479;49.044;8.716;2022-09-30T18:13:24;8.13;;;3.70;;
25609;SDS011;13479;49.044;8.716;2022-09-30T18:15:50;7.57;;;3.42;;
25609;SDS011;13479;49.044;8.716;2022-09-30T18:18:15;10.30;;;3.92;;
25609;SDS011;13479;49.044;8.716;2022-09-30T18:20:44;11.55;;;4.97;;
25609;SDS011;13479;49.044;8.716;2022-09-30T18:23:11;9.15;;;5.25;;
25609;SDS011;13479;49.044;8.716;2022-09-30T18:25:37;7.53;;;4.07;;
25609;SDS011;13479;49.044;8.716;2022-09-30T18:28:06;9.25;;;4.07;;
25609;SDS011;13479;49.044;8.716;2022-09-30T18:30:35;9.30;;;4.45;;
25609;SDS011;13479;49.044;8.716;2022-09-30T18:33:01;7.47;;;4.25;;
25609;SDS011;13479;49.044;8.716;2022-09-30T18:35:29;7.22;;;3.88;;
25609;SDS011;13479;49.044;8.716;2022-09-30T18:37:57;9.68;;;5.85;;
25609;SDS011;13479;49.044;8.716;2022-09-30T18:40:23;11.85;;;5.50;;
25609;SDS011;13479;49.044;8.716;2022-09-30T18:42:53;16.08;;;8.50;;
25609;SDS011;13479;49.044;8.716;2022-09-30T18:45:22;12.18;;;6.05;;
25609;SDS011;13479;49.044;8.716;2022-09-30T18:47:54;13.18;;;6.53;;
25609;SDS011;13479;49.044;8.716;2022-09-30T18:50:21;14.52;;;5.78;;
25609;SDS011;13479;49.044;8.716;2022-09-30T18:52:49;13.02;;;7.38;;
25609;SDS011;13479;49.044;8.716;2022-09-30T18:55:15;16.45;;;8.50;;
25609;SDS011;13479;49.044;8.716;2022-09-30T18:57:42;17.30;;;7.80;;
25609;SDS011;13479;49.044;8.716;2022-09-30T19:00:07;10.82;;;7.28;;
25609;SDS011;13479;49.044;8.716;2022-09-30T19:02:37;16.75;;;9.15;;
25609;SDS011;13479;49.044;8.716;2022-09-30T19:05:04;17.48;;;9.80;;
25609;SDS011;13479;49.044;8.716;2022-09-30T19:07:30;23.20;;;11.25;;
25609;SDS011;13479;49.044;8.716;2022-09-30T19:09:58;17.08;;;9.45;;
25609;SDS011;13479;49.044;8.716;2022-09-30T19:12:23;16.45;;;8.85;;
25609;SDS011;13479;49.044;8.716;2022-09-30T19:14:51;15.90;;;8.30;;
25609;SDS011;13479;49.044;8.716;2022-09-30T19:17:16;17.80;;;10.52;;
25609;SDS011;13479;49.044;8.716;2022-09-30T19:19:42;22.17;;;9.02;;
25609;SDS011;13479;49.044;8.716;2022-09-30T19:24:43;17.30;;;9.23;;
25609;SDS011;13479;49.044;8.716;2022-09-30T19:27:08;32.42;;;19.60;;
25609;SDS011;13479;49.044;8.716;2022-09-30T19:29:35;16.67;;;8.80;;
25609;SDS011;13479;49.044;8.716;2022-09-30T19:32:00;15.98;;;8.23;;
25609;SDS011;13479;49.044;8.716;2022-09-30T19:34:25;21.95;;;10.65;;
25609;SDS011;13479;49.044;8.716;2022-09-30T19:36:51;26.83;;;16.40;;
25609;SDS011;13479;49.044;8.716;2022-09-30T19:39:23;14.80;;;8.40;;
25609;SDS011;13479;49.044;8.716;2022-09-30T19:41:49;14.17;;;7.10;;
25609;SDS011;13479;49.044;8.716;2022-09-30T19:44:14;15.52;;;7.35;;
25609;SDS011;13479;49.044;8.716;2022-09-30T19:46:43;15.98;;;7.30;;
25609;SDS011;13479;49.044;8.716;2022-09-30T19:49:11;11.77;;;7.55;;
25609;SDS011;13479;49.044;8.716;2022-09-30T19:51:36;13.23;;;6.93;;
25609;SDS011;13479;49.044;8.716;2022-09-30T19:54:02;15.97;;;8.13;;
25609;SDS011;13479;49.044;8.716;2022-09-30T19:56:27;21.23;;;10.55;;
25609;SDS011;13479;49.044;8.716;2022-09-30T19:58:52;17.17;;;9.10;;
25609;SDS011;13479;49.044;8.716;2022-09-30T20:01:22;23.67;;;11.07;;
25609;SDS011;13479;49.044;8.716;2022-09-30T20:03:52;22.25;;;11.18;;
25609;SDS011;13479;49.044;8.716;2022-09-30T20:06:18;22.45;;;11.68;;
25609;SDS011;13479;49.044;8.716;2022-09-30T20:08:48;19.25;;;10.38;;
25609;SDS011;13479;49.044;8.716;2022-09-30T20:11:16;20.73;;;9.30;;
25609;SDS011;13479;49.044;8.716;2022-09-30T20:13:49;18.47;;;9.63;;
25609;SDS011;13479;49.044;8.716;2022-09-30T20:16:35;18.48;;;9.60;;
25609;SDS011;13479;49.044;8.716;2022-09-30T20:19:01;17.25;;;8.65;;
25609;SDS011;13479;49.044;8.716;2022-09-30T20:21:26;17.45;;;8.07;;
25609;SDS011;13479;49.044;8.716;2022-09-30T20:23:51;18.00;;;10.57;;
25609;SDS011;13479;49.044;8.716;2022-09-30T20:26:18;22.85;;;10.52;;
25609;SDS011;13479;49.044;8.716;2022-09-30T20:28:43;19.17;;;10.88;;
25609;SDS011;13479;49.044;8.716;2022-09-30T20:31:12;19.00;;;11.15;;
25609;SDS011;13479;49.044;8.716;2022-09-30T20:33:39;22.33;;;10.38;;
25609;SDS011;13479;49.044;8.716;2022-09-30T20:36:06;21.03;;;10.00;;
25609;SDS011;13479;49.044;8.716;2022-09-30T20:38:33;20.52;;;11.95;;
25609;SDS011;13479;49.044;8.716;2022-09-30T20:41:02;20.58;;;10.07;;
25609;SDS011;13479;49.044;8.716;2022-09-30T20:43:28;25.63;;;10.70;;
25609;SDS011;13479;49.044;8.716;2022-09-30T20:45:55;19.05;;;10.15;;
25609;SDS011;13479;49.044;8.716;2022-09-30T20:48:35;24.90;;;9.35;;
25609;SDS011;13479;49.044;8.716;2022-09-30T20:51:05;23.83;;;10.10;;
25609;SDS011;13479;49.044;8.716;2022-09-30T20:53:35;21.80;;;11.15;;
25609;SDS011;13479;49.044;8.716;2022-09-30T20:56:03;25.80;;;12.43;;
25609;SDS011;13479;49.044;8.716;2022-09-30T20:58:29;33.07;;;14.87;;
25609;SDS011;13479;49.044;8.716;2022-09-30T21:01:01;29.80;;;14.40;;
25609;SDS011;13479;49.044;8.716;2022-09-30T21:03:29;28.17;;;13.25;;
25609;SDS011;13479;49.044;8.716;2022-09-30T21:05:57;23.77;;;11.63;;
25609;SDS011;13479;49.044;8.716;2022-09-30T21:08:22;24.47;;;11.60;;
25609;SDS011;13479;49.044;8.716;2022-09-30T21:10:48;22.97;;;12.20;;
25609;SDS011;13479;49.044;8.716;2022-09-30T21:13:14;20.77;;;10.97;;
25609;SDS011;13479;49.044;8.716;2022-09-30T21:15:39;27.67;;;13.07;;
25609;SDS011;13479;49.044;8.716;2022-09-30T21:18:05;28.90;;;15.07;;
25609;SDS011;13479;49.044;8.716;2022-09-30T21:20:31;29.43;;;16.77;;
25609;SDS011;13479;49.044;8.716;2022-09-30T21:22:56;25.70;;;14.50;;
25609;SDS011;13479;49.044;8.716;2022-09-30T21:25:22;24.60;;;12.33;;
25609;SDS011;13479;49.044;8.716;2022-09-30T21:27:47;22.67;;;12.53;;